sensor_id;sensor_type;location;lat;lon;timestamp;pressure;altitude;pressure_sealevel;temperature
40968;BMP280;57377;45.130;6.038;2022-09-14T00:02:23;92148.31;;;22.70
40968;BMP280;57377;45.130;6.038;2022-09-14T00:04:49;92151.56;;;22.96
40968;BMP280;57377;45.130;6.038;2022-09-14T00:07:40;92148.63;;;23.08
40968;BMP280;57377;45.130;6.038;2022-09-14T00:10:11;92148.66;;;23.15
40968;BMP280;57377;45.130;6.038;2022-09-14T00:12:36;92140.78;;;23.29
40968;BMP280;57377;45.130;6.038;2022-09-14T00:15:02;92144.22;;;23.43
40968;BMP280;57377;45.130;6.038;2022-09-14T00:17:28;92138.19;;;23.49
40968;BMP280;57377;45.130;6.038;2022-09-14T00:19:54;92137.38;;;23.32
40968;BMP280;57377;45.130;6.038;2022-09-14T00:22:24;92127.53;;;23.39
40968;BMP280;57377;45.130;6.038;2022-09-14T00:24:51;92118.09;;;23.49
40968;BMP280;57377;45.130;6.038;2022-09-14T00:27:20;92124.59;;;23.54
40968;BMP280;57377;45.130;6.038;2022-09-14T00:29:48;92125.31;;;23.48
40968;BMP280;57377;45.130;6.038;2022-09-14T00:32:18;92114.72;;;23.55
40968;BMP280;57377;45.130;6.038;2022-09-14T00:35:29;92134.84;;;23.59
40968;BMP280;57377;45.130;6.038;2022-09-14T00:37:58;92115.53;;;23.69
40968;BMP280;57377;45.130;6.038;2022-09-14T00:40:25;92126.94;;;23.77
40968;BMP280;57377;45.130;6.038;2022-09-14T00:43:19;92119.31;;;23.65
40968;BMP280;57377;45.130;6.038;2022-09-14T00:45:51;92120.09;;;23.65
40968;BMP280;57377;45.130;6.038;2022-09-14T00:48:24;92123.13;;;23.74
40968;BMP280;57377;45.130;6.038;2022-09-14T00:51:15;92122.78;;;23.72
40968;BMP280;57377;45.130;6.038;2022-09-14T00:53:43;92115.44;;;23.49
40968;BMP280;57377;45.130;6.038;2022-09-14T00:56:19;92123.09;;;23.53
40968;BMP280;57377;45.130;6.038;2022-09-14T00:59:16;92121.19;;;23.57
40968;BMP280;57377;45.130;6.038;2022-09-14T01:04:59;92109.06;;;23.67
40968;BMP280;57377;45.130;6.038;2022-09-14T01:19:50;92107.97;;;23.71
40968;BMP280;57377;45.130;6.038;2022-09-14T01:22:50;92109.50;;;23.79
40968;BMP280;57377;45.130;6.038;2022-09-14T01:29:16;92125.00;;;23.56
40968;BMP280;57377;45.130;6.038;2022-09-14T01:32:02;92113.97;;;23.54
40968;BMP280;57377;45.130;6.038;2022-09-14T01:34:33;92098.44;;;23.56
40968;BMP280;57377;45.130;6.038;2022-09-14T01:37:40;92123.13;;;23.60
40968;BMP280;57377;45.130;6.038;2022-09-14T01:42:45;92113.94;;;23.51
40968;BMP280;57377;45.130;6.038;2022-09-14T01:45:27;92100.47;;;22.53
40968;BMP280;57377;45.130;6.038;2022-09-14T01:48:01;92114.44;;;23.00
40968;BMP280;57377;45.130;6.038;2022-09-14T01:50:32;92115.31;;;23.17
40968;BMP280;57377;45.130;6.038;2022-09-14T01:53:19;92119.91;;;23.31
40968;BMP280;57377;45.130;6.038;2022-09-14T01:56:00;92116.41;;;23.13
40968;BMP280;57377;45.130;6.038;2022-09-14T01:58:35;92111.47;;;23.08
40968;BMP280;57377;45.130;6.038;2022-09-14T02:01:06;92115.19;;;22.93
40968;BMP280;57377;45.130;6.038;2022-09-14T02:03:44;92115.28;;;23.14
40968;BMP280;57377;45.130;6.038;2022-09-14T02:08:52;92127.28;;;23.58
40968;BMP280;57377;45.130;6.038;2022-09-14T02:11:17;92129.00;;;23.30
40968;BMP280;57377;45.130;6.038;2022-09-14T02:13:43;92128.03;;;23.62
40968;BMP280;57377;45.130;6.038;2022-09-14T02:16:09;92124.63;;;23.58
40968;BMP280;57377;45.130;6.038;2022-09-14T02:18:34;92130.00;;;23.79
40968;BMP280;57377;45.130;6.038;2022-09-14T02:21:04;92135.88;;;23.38
40968;BMP280;57377;45.130;6.038;2022-09-14T02:23:33;92134.13;;;23.69
40968;BMP280;57377;45.130;6.038;2022-09-14T02:25:59;92120.50;;;23.81
40968;BMP280;57377;45.130;6.038;2022-09-14T02:28:25;92117.72;;;23.47
40968;BMP280;57377;45.130;6.038;2022-09-14T02:34:12;92120.91;;;23.90
40968;BMP280;57377;45.130;6.038;2022-09-14T02:37:00;92126.16;;;23.69
40968;BMP280;57377;45.130;6.038;2022-09-14T02:50:15;92135.22;;;23.54
40968;BMP280;57377;45.130;6.038;2022-09-14T02:53:07;92127.53;;;23.43
40968;BMP280;57377;45.130;6.038;2022-09-14T02:55:37;92126.56;;;23.68
40968;BMP280;57377;45.130;6.038;2022-09-14T02:58:10;92132.25;;;23.73
40968;BMP280;57377;45.130;6.038;2022-09-14T03:00:43;92118.56;;;23.64
40968;BMP280;57377;45.130;6.038;2022-09-14T03:03:12;92123.13;;;23.60
40968;BMP280;57377;45.130;6.038;2022-09-14T03:05:37;92120.50;;;23.81
40968;BMP280;57377;45.130;6.038;2022-09-14T03:08:03;92119.38;;;23.79
40968;BMP280;57377;45.130;6.038;2022-09-14T03:10:30;92112.50;;;23.67
40968;BMP280;57377;45.130;6.038;2022-09-14T03:12:56;92105.69;;;23.73
40968;BMP280;57377;45.130;6.038;2022-09-14T03:15:24;92105.72;;;23.80
40968;BMP280;57377;45.130;6.038;2022-09-14T03:17:51;92098.09;;;23.79
40968;BMP280;57377;45.130;6.038;2022-09-14T03:20:26;92092.84;;;23.89
40968;BMP280;57377;45.130;6.038;2022-09-14T03:23:13;92091.69;;;23.86
40968;BMP280;57377;45.130;6.038;2022-09-14T03:25:41;92078.41;;;23.86
40968;BMP280;57377;45.130;6.038;2022-09-14T03:28:08;92074.59;;;23.91
40968;BMP280;57377;45.130;6.038;2022-09-14T03:30:58;92074.63;;;23.98
40968;BMP280;57377;45.130;6.038;2022-09-14T03:33:39;92083.72;;;23.93
40968;BMP280;57377;45.130;6.038;2022-09-14T03:36:12;92069.63;;;23.65
40968;BMP280;57377;45.130;6.038;2022-09-14T03:38:42;92070.78;;;23.68
40968;BMP280;57377;45.130;6.038;2022-09-14T03:41:08;92067.38;;;23.67
40968;BMP280;57377;45.130;6.038;2022-09-14T03:43:34;92061.25;;;23.56
40968;BMP280;57377;45.130;6.038;2022-09-14T03:46:05;92063.91;;;23.56
40968;BMP280;57377;45.130;6.038;2022-09-14T03:48:31;92061.59;;;23.51
40968;BMP280;57377;45.130;6.038;2022-09-14T03:51:00;92073.56;;;23.08
40968;BMP280;57377;45.130;6.038;2022-09-14T03:53:28;92082.72;;;23.20
40968;BMP280;57377;45.130;6.038;2022-09-14T03:55:54;92083.53;;;23.31
40968;BMP280;57377;45.130;6.038;2022-09-14T03:58:20;92076.66;;;23.20
40968;BMP280;57377;45.130;6.038;2022-09-14T04:00:45;92072.91;;;23.35
40968;BMP280;57377;45.130;6.038;2022-09-14T04:03:11;92070.59;;;23.26
40968;BMP280;57377;45.130;6.038;2022-09-14T04:05:38;92063.03;;;23.32
40968;BMP280;57377;45.130;6.038;2022-09-14T04:08:03;92069.91;;;23.40
40968;BMP280;57377;45.130;6.038;2022-09-14T04:10:29;92062.69;;;23.37
40968;BMP280;57377;45.130;6.038;2022-09-14T04:12:54;92058.50;;;23.36
40968;BMP280;57377;45.130;6.038;2022-09-14T04:15:20;92056.91;;;23.21
40968;BMP280;57377;45.130;6.038;2022-09-14T04:17:45;92041.00;;;23.21
40968;BMP280;57377;45.130;6.038;2022-09-14T04:20:12;92041.03;;;23.28
40968;BMP280;57377;45.130;6.038;2022-09-14T04:22:37;92039.13;;;23.28
40968;BMP280;57377;45.130;6.038;2022-09-14T04:25:04;92044.06;;;23.30
40968;BMP280;57377;45.130;6.038;2022-09-14T04:27:33;92060.72;;;23.20
40968;BMP280;57377;45.130;6.038;2022-09-14T04:30:03;92071.41;;;23.34
40968;BMP280;57377;45.130;6.038;2022-09-14T04:32:30;92091.34;;;23.07
40968;BMP280;57377;45.130;6.038;2022-09-14T04:34:56;92098.25;;;23.15
40968;BMP280;57377;45.130;6.038;2022-09-14T04:37:22;92105.94;;;22.74
40968;BMP280;57377;45.130;6.038;2022-09-14T05:11:36;92067.38;;;21.22
40968;BMP280;57377;45.130;6.038;2022-09-14T05:17:16;92080.06;;;21.39
40968;BMP280;57377;45.130;6.038;2022-09-14T05:22:58;92078.59;;;21.41
40968;BMP280;57377;45.130;6.038;2022-09-14T05:26:33;92095.88;;;21.68
40968;BMP280;57377;45.130;6.038;2022-09-14T05:29:39;92088.13;;;21.85
40968;BMP280;57377;45.130;6.038;2022-09-14T05:32:05;92106.28;;;21.83
40968;BMP280;57377;45.130;6.038;2022-09-14T05:34:31;92127.03;;;21.16
40968;BMP280;57377;45.130;6.038;2022-09-14T05:36:56;92130.75;;;21.12
40968;BMP280;57377;45.130;6.038;2022-09-14T05:39:58;92126.44;;;21.29
40968;BMP280;57377;45.130;6.038;2022-09-14T05:42:35;92135.31;;;21.15
40968;BMP280;57377;45.130;6.038;2022-09-14T05:45:14;92124.63;;;21.08
40968;BMP280;57377;45.130;6.038;2022-09-14T05:47:43;92132.41;;;21.23
40968;BMP280;57377;45.130;6.038;2022-09-14T06:09:33;92195.09;;;21.19
40968;BMP280;57377;45.130;6.038;2022-09-14T06:12:26;92211.78;;;21.23
40968;BMP280;57377;45.130;6.038;2022-09-14T06:15:24;92240.91;;;21.23
40968;BMP280;57377;45.130;6.038;2022-09-14T06:17:50;92255.31;;;20.78
40968;BMP280;57377;45.130;6.038;2022-09-14T06:20:15;92267.22;;;20.90
40968;BMP280;57377;45.130;6.038;2022-09-14T06:22:42;92288.84;;;20.74
40968;BMP280;57377;45.130;6.038;2022-09-14T06:25:08;92304.50;;;20.82
40968;BMP280;57377;45.130;6.038;2022-09-14T06:27:34;92309.56;;;20.72
40968;BMP280;57377;45.130;6.038;2022-09-14T06:29:59;92320.88;;;20.50
40968;BMP280;57377;45.130;6.038;2022-09-14T06:32:24;92326.34;;;20.38
40968;BMP280;57377;45.130;6.038;2022-09-14T06:34:51;92324.50;;;20.61
40968;BMP280;57377;45.130;6.038;2022-09-14T06:37:16;92328.09;;;20.72
40968;BMP280;57377;45.130;6.038;2022-09-14T06:39:42;92327.00;;;20.95
40968;BMP280;57377;45.130;6.038;2022-09-14T06:42:07;92335.84;;;20.84
40968;BMP280;57377;45.130;6.038;2022-09-14T06:44:32;92335.25;;;20.71
40968;BMP280;57377;45.130;6.038;2022-09-14T06:46:58;92334.78;;;20.47
40968;BMP280;57377;45.130;6.038;2022-09-14T06:49:23;92341.63;;;20.48
40968;BMP280;57377;45.130;6.038;2022-09-14T06:51:49;92350.31;;;20.90
40968;BMP280;57377;45.130;6.038;2022-09-14T06:54:16;92354.88;;;20.52
40968;BMP280;57377;45.130;6.038;2022-09-14T06:56:44;92364.00;;;20.95
40968;BMP280;57377;45.130;6.038;2022-09-14T06:59:11;92378.13;;;21.02
40968;BMP280;57377;45.130;6.038;2022-09-14T07:01:39;92392.44;;;20.42
40968;BMP280;57377;45.130;6.038;2022-09-14T07:04:05;92400.94;;;20.51
40968;BMP280;57377;45.130;6.038;2022-09-14T07:06:37;92391.88;;;20.52
40968;BMP280;57377;45.130;6.038;2022-09-14T07:09:03;92392.16;;;20.47
40968;BMP280;57377;45.130;6.038;2022-09-14T07:11:29;92386.19;;;20.31
40968;BMP280;57377;45.130;6.038;2022-09-14T07:13:55;92376.16;;;20.77
40968;BMP280;57377;45.130;6.038;2022-09-14T07:16:28;92368.03;;;19.92
40968;BMP280;57377;45.130;6.038;2022-09-14T07:18:59;92353.47;;;19.83
40968;BMP280;57377;45.130;6.038;2022-09-14T07:21:26;92346.44;;;20.24
40968;BMP280;57377;45.130;6.038;2022-09-14T07:23:52;92337.59;;;20.35
40968;BMP280;57377;45.130;6.038;2022-09-14T07:26:26;92325.22;;;20.39
40968;BMP280;57377;45.130;6.038;2022-09-14T07:28:56;92302.34;;;20.09
40968;BMP280;57377;45.130;6.038;2022-09-14T07:31:30;92301.59;;;20.50
40968;BMP280;57377;45.130;6.038;2022-09-14T07:33:58;92291.06;;;20.72
40968;BMP280;57377;45.130;6.038;2022-09-14T07:36:24;92298.75;;;20.77
40968;BMP280;57377;45.130;6.038;2022-09-14T07:38:51;92297.66;;;21.03
40968;BMP280;57377;45.130;6.038;2022-09-14T07:41:16;92295.59;;;21.16
40968;BMP280;57377;45.130;6.038;2022-09-14T07:43:42;92295.09;;;21.10
40968;BMP280;57377;45.130;6.038;2022-09-14T07:46:08;92295.56;;;20.49
40968;BMP280;57377;45.130;6.038;2022-09-14T07:48:34;92280.28;;;20.80
40968;BMP280;57377;45.130;6.038;2022-09-14T07:51:01;92291.75;;;20.47
40968;BMP280;57377;45.130;6.038;2022-09-14T07:53:27;92281.56;;;20.26
40968;BMP280;57377;45.130;6.038;2022-09-14T07:55:52;92291.16;;;20.34
40968;BMP280;57377;45.130;6.038;2022-09-14T07:58:17;92285.41;;;20.51
40968;BMP280;57377;45.130;6.038;2022-09-14T08:00:43;92284.38;;;20.15
40968;BMP280;57377;45.130;6.038;2022-09-14T08:03:08;92296.56;;;20.41
40968;BMP280;57377;45.130;6.038;2022-09-14T08:05:34;92310.25;;;20.28
40968;BMP280;57377;45.130;6.038;2022-09-14T08:07:59;92303.53;;;20.12
40968;BMP280;57377;45.130;6.038;2022-09-14T08:10:26;92314.06;;;20.68
40968;BMP280;57377;45.130;6.038;2022-09-14T08:12:52;92329.16;;;20.90
40968;BMP280;57377;45.130;6.038;2022-09-14T08:15:20;92324.22;;;21.10
40968;BMP280;57377;45.130;6.038;2022-09-14T08:17:45;92317.16;;;19.95
40968;BMP280;57377;45.130;6.038;2022-09-14T08:20:10;92308.78;;;20.49
40968;BMP280;57377;45.130;6.038;2022-09-14T08:22:36;92291.94;;;20.57
40968;BMP280;57377;45.130;6.038;2022-09-14T08:25:01;92293.50;;;20.58
40968;BMP280;57377;45.130;6.038;2022-09-14T08:27:27;92282.22;;;20.83
40968;BMP280;57377;45.130;6.038;2022-09-14T08:29:52;92276.63;;;20.66
40968;BMP280;57377;45.130;6.038;2022-09-14T08:32:18;92272.38;;;20.84
40968;BMP280;57377;45.130;6.038;2022-09-14T08:34:43;92276.50;;;20.59
40968;BMP280;57377;45.130;6.038;2022-09-14T08:37:09;92272.50;;;20.46
40968;BMP280;57377;45.130;6.038;2022-09-14T08:39:35;92265.06;;;20.96
40968;BMP280;57377;45.130;6.038;2022-09-14T08:42:01;92247.84;;;21.09
40968;BMP280;57377;45.130;6.038;2022-09-14T08:47:02;92234.16;;;20.78
40968;BMP280;57377;45.130;6.038;2022-09-14T08:49:47;92225.31;;;21.18
40968;BMP280;57377;45.130;6.038;2022-09-14T08:52:39;92234.38;;;20.91
40968;BMP280;57377;45.130;6.038;2022-09-14T09:00:58;92228.31;;;20.91
40968;BMP280;57377;45.130;6.038;2022-09-14T09:11:56;92201.75;;;21.61
40968;BMP280;57377;45.130;6.038;2022-09-14T09:14:27;92196.50;;;22.00
40968;BMP280;57377;45.130;6.038;2022-09-14T09:16:56;92207.13;;;22.04
40968;BMP280;57377;45.130;6.038;2022-09-14T09:19:29;92211.44;;;22.12
40968;BMP280;57377;45.130;6.038;2022-09-14T09:21:56;92220.66;;;21.63
40968;BMP280;57377;45.130;6.038;2022-09-14T09:26:50;92207.38;;;22.21
40968;BMP280;57377;45.130;6.038;2022-09-14T09:29:15;92197.84;;;22.17
40968;BMP280;57377;45.130;6.038;2022-09-14T09:31:54;92193.19;;;22.07
40968;BMP280;57377;45.130;6.038;2022-09-14T09:34:27;92198.69;;;22.27
40968;BMP280;57377;45.130;6.038;2022-09-14T09:36:53;92181.22;;;22.20
40968;BMP280;57377;45.130;6.038;2022-09-14T09:39:21;92173.81;;;22.35
40968;BMP280;57377;45.130;6.038;2022-09-14T09:41:52;92166.81;;;22.60
40968;BMP280;57377;45.130;6.038;2022-09-14T09:44:19;92159.78;;;22.35
40968;BMP280;57377;45.130;6.038;2022-09-14T09:46:52;92149.94;;;22.82
40968;BMP280;57377;45.130;6.038;2022-09-14T09:49:22;92150.56;;;22.65
40968;BMP280;57377;45.130;6.038;2022-09-14T09:51:49;92145.75;;;22.34
40968;BMP280;57377;45.130;6.038;2022-09-14T10:02:23;92112.25;;;23.16
40968;BMP280;57377;45.130;6.038;2022-09-14T10:10:15;92086.59;;;23.44
40968;BMP280;57377;45.130;6.038;2022-09-14T10:12:47;92091.97;;;23.54
40968;BMP280;57377;45.130;6.038;2022-09-14T10:15:20;92090.78;;;22.78
40968;BMP280;57377;45.130;6.038;2022-09-14T10:18:14;92104.00;;;23.38
40968;BMP280;57377;45.130;6.038;2022-09-14T10:21:04;92090.88;;;22.88
40968;BMP280;57377;45.130;6.038;2022-09-14T10:23:37;92096.84;;;23.42
40968;BMP280;57377;45.130;6.038;2022-09-14T10:26:33;92079.78;;;22.76
40968;BMP280;57377;45.130;6.038;2022-09-14T10:32:19;92085.31;;;22.53
40968;BMP280;57377;45.130;6.038;2022-09-14T10:35:04;92078.03;;;22.93
40968;BMP280;57377;45.130;6.038;2022-09-14T10:41:19;92080.66;;;22.86
40968;BMP280;57377;45.130;6.038;2022-09-14T10:46:50;92066.00;;;22.53
40968;BMP280;57377;45.130;6.038;2022-09-14T10:52:12;92065.31;;;22.10
40968;BMP280;57377;45.130;6.038;2022-09-14T11:00:11;92058.31;;;22.94
40968;BMP280;57377;45.130;6.038;2022-09-14T11:05:24;92050.81;;;22.04
40968;BMP280;57377;45.130;6.038;2022-09-14T11:08:23;92051.91;;;22.39
40968;BMP280;57377;45.130;6.038;2022-09-14T11:14:27;92073.81;;;21.93
40968;BMP280;57377;45.130;6.038;2022-09-14T11:23:28;92088.03;;;22.64
40968;BMP280;57377;45.130;6.038;2022-09-14T11:26:11;92103.03;;;22.00
40968;BMP280;57377;45.130;6.038;2022-09-14T11:31:45;92126.00;;;21.24
40968;BMP280;57377;45.130;6.038;2022-09-14T11:34:37;92119.84;;;20.88
40968;BMP280;57377;45.130;6.038;2022-09-14T11:37:16;92136.59;;;21.89
40968;BMP280;57377;45.130;6.038;2022-09-14T11:40:07;92134.38;;;21.58
40968;BMP280;57377;45.130;6.038;2022-09-14T11:42:57;92131.59;;;21.48
40968;BMP280;57377;45.130;6.038;2022-09-14T11:45:40;92127.22;;;21.95
40968;BMP280;57377;45.130;6.038;2022-09-14T11:48:09;92131.41;;;22.35
40968;BMP280;57377;45.130;6.038;2022-09-14T11:50:36;92126.94;;;22.46
40968;BMP280;57377;45.130;6.038;2022-09-14T11:53:12;92118.56;;;22.44
40968;BMP280;57377;45.130;6.038;2022-09-14T11:55:42;92113.38;;;22.58
40968;BMP280;57377;45.130;6.038;2022-09-14T12:12:42;92113.06;;;23.23
40968;BMP280;57377;45.130;6.038;2022-09-14T12:18:19;92104.25;;;23.05
40968;BMP280;57377;45.130;6.038;2022-09-14T12:50:43;92084.94;;;24.23
40968;BMP280;57377;45.130;6.038;2022-09-14T12:53:30;92078.47;;;24.38
40968;BMP280;57377;45.130;6.038;2022-09-14T12:57:09;92085.31;;;24.39
40968;BMP280;57377;45.130;6.038;2022-09-14T13:00:19;92074.31;;;24.44
40968;BMP280;57377;45.130;6.038;2022-09-14T13:09:48;92065.53;;;24.85
40968;BMP280;57377;45.130;6.038;2022-09-14T13:12:42;92071.63;;;24.23
40968;BMP280;57377;45.130;6.038;2022-09-14T13:16:01;92071.66;;;24.37
40968;BMP280;57377;45.130;6.038;2022-09-14T13:18:38;92063.25;;;24.70
40968;BMP280;57377;45.130;6.038;2022-09-14T13:21:20;92074.66;;;24.08
40968;BMP280;57377;45.130;6.038;2022-09-14T13:23:47;92068.22;;;24.26
40968;BMP280;57377;45.130;6.038;2022-09-14T13:26:28;92075.41;;;24.53
40968;BMP280;57377;45.130;6.038;2022-09-14T13:29:07;92076.94;;;24.65
40968;BMP280;57377;45.130;6.038;2022-09-14T13:37:02;92067.84;;;24.38
40968;BMP280;57377;45.130;6.038;2022-09-14T13:40:28;92078.47;;;24.45
40968;BMP280;57377;45.130;6.038;2022-09-14T13:42:59;92073.91;;;24.32
40968;BMP280;57377;45.130;6.038;2022-09-14T13:48:03;92068.16;;;24.13
40968;BMP280;57377;45.130;6.038;2022-09-14T13:58:23;92066.66;;;24.18
40968;BMP280;57377;45.130;6.038;2022-09-14T14:04:49;92061.69;;;23.83
40968;BMP280;57377;45.130;6.038;2022-09-14T14:07:36;92060.91;;;23.72
40968;BMP280;57377;45.130;6.038;2022-09-14T14:13:39;92050.69;;;23.87
40968;BMP280;57377;45.130;6.038;2022-09-14T14:23:53;92041.56;;;23.88
40968;BMP280;57377;45.130;6.038;2022-09-14T14:31:14;92032.84;;;23.88
40968;BMP280;57377;45.130;6.038;2022-09-14T14:52:32;92002.50;;;23.99
40968;BMP280;57377;45.130;6.038;2022-09-14T14:55:41;92000.97;;;24.02
40968;BMP280;57377;45.130;6.038;2022-09-14T15:02:07;92007.44;;;23.94
40968;BMP280;57377;45.130;6.038;2022-09-14T15:05:15;92016.13;;;23.84
40968;BMP280;57377;45.130;6.038;2022-09-14T15:12:18;92000.56;;;23.79
40968;BMP280;57377;45.130;6.038;2022-09-14T15:14:50;91994.88;;;23.53
40968;BMP280;57377;45.130;6.038;2022-09-14T15:17:21;91979.72;;;23.67
40968;BMP280;57377;45.130;6.038;2022-09-14T15:20:17;91977.34;;;23.35
40968;BMP280;57377;45.130;6.038;2022-09-14T15:23:20;91969.41;;;23.49
40968;BMP280;57377;45.130;6.038;2022-09-14T15:31:13;91967.56;;;23.63
40968;BMP280;57377;45.130;6.038;2022-09-14T15:33:49;91955.38;;;23.51
40968;BMP280;57377;45.130;6.038;2022-09-14T15:39:43;91969.84;;;23.78
40968;BMP280;57377;45.130;6.038;2022-09-14T15:42:54;91966.72;;;23.38
40968;BMP280;57377;45.130;6.038;2022-09-14T15:51:17;91944.03;;;23.75
40968;BMP280;57377;45.130;6.038;2022-09-14T17:07:22;91977.28;;;22.37
40968;BMP280;57377;45.130;6.038;2022-09-14T18:04:11;91946.09;;;22.13
40968;BMP280;57377;45.130;6.038;2022-09-14T18:06:41;91960.97;;;22.35
40968;BMP280;57377;45.130;6.038;2022-09-14T18:09:13;91960.19;;;22.24
40968;BMP280;57377;45.130;6.038;2022-09-14T18:11:53;91960.28;;;22.41
40968;BMP280;57377;45.130;6.038;2022-09-14T18:14:23;91964.53;;;21.99
40968;BMP280;57377;45.130;6.038;2022-09-14T18:16:48;91981.78;;;21.37
40968;BMP280;57377;45.130;6.038;2022-09-14T18:19:14;91987.16;;;21.90
40968;BMP280;57377;45.130;6.038;2022-09-14T18:21:42;92002.38;;;21.21
40968;BMP280;57377;45.130;6.038;2022-09-14T18:24:10;91997.78;;;21.51
40968;BMP280;57377;45.130;6.038;2022-09-14T18:26:36;92003.59;;;21.66
40968;BMP280;57377;45.130;6.038;2022-09-14T18:29:12;92000.31;;;21.80
40968;BMP280;57377;45.130;6.038;2022-09-14T18:31:52;91996.22;;;21.89
40968;BMP280;57377;45.130;6.038;2022-09-14T18:34:20;92014.41;;;21.94
40968;BMP280;57377;45.130;6.038;2022-09-14T18:37:06;92008.28;;;21.83
40968;BMP280;57377;45.130;6.038;2022-09-14T18:40:19;92001.63;;;22.03
40968;BMP280;57377;45.130;6.038;2022-09-14T18:43:09;92013.84;;;21.71
40968;BMP280;57377;45.130;6.038;2022-09-14T18:49:04;92018.81;;;21.76
40968;BMP280;57377;45.130;6.038;2022-09-14T18:51:59;92030.22;;;21.80
40968;BMP280;57377;45.130;6.038;2022-09-14T18:54:27;92024.72;;;21.63
40968;BMP280;57377;45.130;6.038;2022-09-14T18:56:54;92014.03;;;21.49
40968;BMP280;57377;45.130;6.038;2022-09-14T18:59:22;92019.59;;;21.37
40968;BMP280;57377;45.130;6.038;2022-09-14T19:01:47;92028.69;;;21.79
40968;BMP280;57377;45.130;6.038;2022-09-14T19:04:13;92035.28;;;21.99
40968;BMP280;57377;45.130;6.038;2022-09-14T19:06:40;92031.03;;;21.88
40968;BMP280;57377;45.130;6.038;2022-09-14T19:09:09;92029.13;;;21.49
40968;BMP280;57377;45.130;6.038;2022-09-14T19:11:35;92030.81;;;21.63
40968;BMP280;57377;45.130;6.038;2022-09-14T19:14:16;92062.69;;;21.74
40968;BMP280;57377;45.130;6.038;2022-09-14T19:16:47;92048.31;;;21.75
40968;BMP280;57377;45.130;6.038;2022-09-14T19:35:34;92062.34;;;21.43
40968;BMP280;57377;45.130;6.038;2022-09-14T19:41:26;92059.72;;;21.14
40968;BMP280;57377;45.130;6.038;2022-09-14T19:43:53;92064.75;;;21.55
40968;BMP280;57377;45.130;6.038;2022-09-14T19:46:20;92092.09;;;21.65
40968;BMP280;57377;45.130;6.038;2022-09-14T19:55:06;92097.34;;;21.62
40968;BMP280;57377;45.130;6.038;2022-09-14T19:57:42;92085.38;;;21.10
40968;BMP280;57377;45.130;6.038;2022-09-14T20:00:09;92087.56;;;21.66
40968;BMP280;57377;45.130;6.038;2022-09-14T20:05:27;92092.59;;;21.42
40968;BMP280;57377;45.130;6.038;2022-09-14T20:07:53;92121.47;;;21.54
40968;BMP280;57377;45.130;6.038;2022-09-14T20:10:19;92163.84;;;21.57
40968;BMP280;57377;45.130;6.038;2022-09-14T20:12:52;92169.91;;;21.03
40968;BMP280;57377;45.130;6.038;2022-09-14T20:26:09;92243.72;;;20.41
40968;BMP280;57377;45.130;6.038;2022-09-14T20:28:55;92258.84;;;20.22
40968;BMP280;57377;45.130;6.038;2022-09-14T20:31:21;92282.50;;;19.44
40968;BMP280;57377;45.130;6.038;2022-09-14T20:33:47;92292.75;;;19.83
40968;BMP280;57377;45.130;6.038;2022-09-14T20:36:16;92312.25;;;19.60
40968;BMP280;57377;45.130;6.038;2022-09-14T20:38:46;92339.03;;;19.43
40968;BMP280;57377;45.130;6.038;2022-09-14T20:41:13;92341.59;;;19.58
40968;BMP280;57377;45.130;6.038;2022-09-14T20:43:40;92358.75;;;18.88
40968;BMP280;57377;45.130;6.038;2022-09-14T20:46:08;92357.09;;;18.53
40968;BMP280;57377;45.130;6.038;2022-09-14T20:48:34;92364.41;;;19.01
40968;BMP280;57377;45.130;6.038;2022-09-14T20:51:00;92384.31;;;19.14
40968;BMP280;57377;45.130;6.038;2022-09-14T20:53:27;92379.72;;;19.11
40968;BMP280;57377;45.130;6.038;2022-09-14T20:55:59;92371.78;;;18.11
40968;BMP280;57377;45.130;6.038;2022-09-14T20:58:25;92348.13;;;18.84
40968;BMP280;57377;45.130;6.038;2022-09-14T21:01:00;92341.16;;;18.34
40968;BMP280;57377;45.130;6.038;2022-09-14T21:03:26;92342.66;;;18.20
40968;BMP280;57377;45.130;6.038;2022-09-14T21:05:52;92331.78;;;18.06
40968;BMP280;57377;45.130;6.038;2022-09-14T21:08:18;92317.06;;;18.47
40968;BMP280;57377;45.130;6.038;2022-09-14T21:10:43;92302.03;;;18.78
40968;BMP280;57377;45.130;6.038;2022-09-14T21:13:09;92308.00;;;19.06
40968;BMP280;57377;45.130;6.038;2022-09-14T21:15:36;92318.94;;;18.62
40968;BMP280;57377;45.130;6.038;2022-09-14T21:18:02;92342.09;;;18.84
40968;BMP280;57377;45.130;6.038;2022-09-14T21:20:28;92344.84;;;18.45
40968;BMP280;57377;45.130;6.038;2022-09-14T21:22:53;92338.78;;;18.71
40968;BMP280;57377;45.130;6.038;2022-09-14T21:25:19;92342.66;;;18.77
40968;BMP280;57377;45.130;6.038;2022-09-14T21:27:44;92350.41;;;18.01
40968;BMP280;57377;45.130;6.038;2022-09-14T21:30:10;92342.22;;;18.60
40968;BMP280;57377;45.130;6.038;2022-09-14T21:32:35;92346.59;;;18.68
40968;BMP280;57377;45.130;6.038;2022-09-14T21:35:01;92333.44;;;18.98
40968;BMP280;57377;45.130;6.038;2022-09-14T21:37:26;92353.56;;;18.76
40968;BMP280;57377;45.130;6.038;2022-09-14T21:39:54;92369.78;;;18.63
40968;BMP280;57377;45.130;6.038;2022-09-14T21:42:20;92361.66;;;18.83
40968;BMP280;57377;45.130;6.038;2022-09-14T21:44:46;92406.41;;;18.95
40968;BMP280;57377;45.130;6.038;2022-09-14T21:47:11;92401.97;;;18.98
40968;BMP280;57377;45.130;6.038;2022-09-14T21:49:36;92417.91;;;19.02
40968;BMP280;57377;45.130;6.038;2022-09-14T21:52:02;92415.50;;;18.28
40968;BMP280;57377;45.130;6.038;2022-09-14T21:54:28;92403.34;;;18.23
40968;BMP280;57377;45.130;6.038;2022-09-14T21:56:53;92420.94;;;18.46
40968;BMP280;57377;45.130;6.038;2022-09-14T21:59:20;92426.53;;;18.06
40968;BMP280;57377;45.130;6.038;2022-09-14T22:01:47;92426.75;;;17.89
40968;BMP280;57377;45.130;6.038;2022-09-14T22:04:14;92426.53;;;17.11
40968;BMP280;57377;45.130;6.038;2022-09-14T22:06:39;92433.56;;;17.90
40968;BMP280;57377;45.130;6.038;2022-09-14T22:09:05;92425.59;;;18.26
40968;BMP280;57377;45.130;6.038;2022-09-14T22:11:35;92432.34;;;18.38
40968;BMP280;57377;45.130;6.038;2022-09-14T22:14:05;92436.25;;;18.56
40968;BMP280;57377;45.130;6.038;2022-09-14T22:16:33;92453.47;;;18.03
40968;BMP280;57377;45.130;6.038;2022-09-14T22:19:00;92452.94;;;18.21
40968;BMP280;57377;45.130;6.038;2022-09-14T22:21:28;92454.72;;;18.44
40968;BMP280;57377;45.130;6.038;2022-09-14T22:23:59;92452.59;;;18.23
40968;BMP280;57377;45.130;6.038;2022-09-14T22:26:29;92465.22;;;18.56